Terminal Aerodrome Forecast
Issued by NWS Tuscon, AZ

Home | Current Version | Previous Version | Text Only | Print | Product List | Glossary On
Versions: 1 2 3 4 5 6 7 8 9 10 11 12 13 14 15 16 17
000
FTUS45 KTWC 220500
TAFTUS
TAF
KTUS 220520Z 2206/2306 14006KT P6SM SCT120
     FM222000 30008KT P6SM SCT080 BKN120
     FM230300 04006KT P6SM SCT120=

USA.gov is the U.S. government's official web portal to all federal, state and local government web resources and services.